sensor_id;sensor_type;location;lat;lon;timestamp;P1;durP1;ratioP1;P2;durP2;ratioP2
57249;SDS011;43102;52.014;-0.680;2023-05-10T00:00:00;6.80;;;3.30;;
57249;SDS011;43102;52.014;-0.680;2023-05-10T00:01:00;6.80;;;3.30;;
57249;SDS011;43102;52.014;-0.680;2023-05-10T00:02:00;6.80;;;3.30;;
57249;SDS011;43102;52.014;-0.680;2023-05-10T00:03:01;6.80;;;3.30;;
57249;SDS011;43102;52.014;-0.680;2023-05-10T00:04:00;6.80;;;3.30;;
57249;SDS011;43102;52.014;-0.680;2023-05-10T00:05:01;6.80;;;3.30;;
57249;SDS011;43102;52.014;-0.680;2023-05-10T00:06:00;6.80;;;3.30;;
57249;SDS011;43102;52.014;-0.680;2023-05-10T00:07:01;6.80;;;3.30;;
57249;SDS011;43102;52.014;-0.680;2023-05-10T00:08:00;6.80;;;3.30;;
57249;SDS011;43102;52.014;-0.680;2023-05-10T00:09:00;6.80;;;3.30;;
57249;SDS011;43102;52.014;-0.680;2023-05-10T00:10:00;6.80;;;3.30;;
57249;SDS011;43102;52.014;-0.680;2023-05-10T00:11:00;6.80;;;3.30;;
57249;SDS011;43102;52.014;-0.680;2023-05-10T00:12:01;6.80;;;3.30;;
57249;SDS011;43102;52.014;-0.680;2023-05-10T00:13:00;6.80;;;3.30;;
57249;SDS011;43102;52.014;-0.680;2023-05-10T00:14:00;6.80;;;3.30;;
57249;SDS011;43102;52.014;-0.680;2023-05-10T00:15:00;6.80;;;3.30;;
57249;SDS011;43102;52.014;-0.680;2023-05-10T00:16:00;6.80;;;3.30;;
57249;SDS011;43102;52.014;-0.680;2023-05-10T00:17:01;6.80;;;3.30;;
57249;SDS011;43102;52.014;-0.680;2023-05-10T00:18:00;6.80;;;3.30;;
57249;SDS011;43102;52.014;-0.680;2023-05-10T00:19:00;6.80;;;3.30;;
57249;SDS011;43102;52.014;-0.680;2023-05-10T00:20:01;6.80;;;3.30;;
57249;SDS011;43102;52.014;-0.680;2023-05-10T00:21:00;6.80;;;3.30;;
57249;SDS011;43102;52.014;-0.680;2023-05-10T00:22:01;6.80;;;3.30;;
57249;SDS011;43102;52.014;-0.680;2023-05-10T00:23:00;6.80;;;3.30;;
57249;SDS011;43102;52.014;-0.680;2023-05-10T00:24:01;6.80;;;3.30;;
57249;SDS011;43102;52.014;-0.680;2023-05-10T00:25:00;6.80;;;3.30;;
57249;SDS011;43102;52.014;-0.680;2023-05-10T00:26:00;6.80;;;3.30;;
57249;SDS011;43102;52.014;-0.680;2023-05-10T00:27:00;6.80;;;3.30;;
57249;SDS011;43102;52.014;-0.680;2023-05-10T00:28:01;6.80;;;3.30;;
57249;SDS011;43102;52.014;-0.680;2023-05-10T00:29:00;6.60;;;3.70;;
57249;SDS011;43102;52.014;-0.680;2023-05-10T00:30:00;6.60;;;3.70;;
57249;SDS011;43102;52.014;-0.680;2023-05-10T00:31:00;6.60;;;3.70;;
57249;SDS011;43102;52.014;-0.680;2023-05-10T00:32:00;6.60;;;3.70;;
57249;SDS011;43102;52.014;-0.680;2023-05-10T00:33:01;6.60;;;3.70;;
57249;SDS011;43102;52.014;-0.680;2023-05-10T00:34:01;6.60;;;3.70;;
57249;SDS011;43102;52.014;-0.680;2023-05-10T00:35:00;6.60;;;3.70;;
57249;SDS011;43102;52.014;-0.680;2023-05-10T00:36:00;6.60;;;3.70;;
57249;SDS011;43102;52.014;-0.680;2023-05-10T00:37:01;6.60;;;3.70;;
57249;SDS011;43102;52.014;-0.680;2023-05-10T00:38:00;6.60;;;3.70;;
57249;SDS011;43102;52.014;-0.680;2023-05-10T00:39:01;6.60;;;3.70;;
57249;SDS011;43102;52.014;-0.680;2023-05-10T00:40:00;6.60;;;3.70;;
57249;SDS011;43102;52.014;-0.680;2023-05-10T00:41:00;6.60;;;3.70;;
57249;SDS011;43102;52.014;-0.680;2023-05-10T00:42:00;6.60;;;3.70;;
57249;SDS011;43102;52.014;-0.680;2023-05-10T00:43:01;6.60;;;3.70;;
57249;SDS011;43102;52.014;-0.680;2023-05-10T00:44:01;6.60;;;3.70;;
57249;SDS011;43102;52.014;-0.680;2023-05-10T00:45:01;6.60;;;3.70;;
57249;SDS011;43102;52.014;-0.680;2023-05-10T00:46:00;6.60;;;3.70;;
57249;SDS011;43102;52.014;-0.680;2023-05-10T00:47:00;6.60;;;3.70;;
57249;SDS011;43102;52.014;-0.680;2023-05-10T00:48:02;6.60;;;3.70;;
57249;SDS011;43102;52.014;-0.680;2023-05-10T00:49:01;6.60;;;3.70;;
57249;SDS011;43102;52.014;-0.680;2023-05-10T00:50:01;6.60;;;3.70;;
57249;SDS011;43102;52.014;-0.680;2023-05-10T00:51:01;6.60;;;3.70;;
57249;SDS011;43102;52.014;-0.680;2023-05-10T00:52:02;6.60;;;3.70;;
57249;SDS011;43102;52.014;-0.680;2023-05-10T00:53:01;6.60;;;3.70;;
57249;SDS011;43102;52.014;-0.680;2023-05-10T00:54:00;6.60;;;3.70;;
57249;SDS011;43102;52.014;-0.680;2023-05-10T00:55:03;6.60;;;3.70;;
57249;SDS011;43102;52.014;-0.680;2023-05-10T00:56:01;6.60;;;3.70;;
57249;SDS011;43102;52.014;-0.680;2023-05-10T00:57:01;6.60;;;3.70;;
57249;SDS011;43102;52.014;-0.680;2023-05-10T00:58:01;6.60;;;3.70;;
57249;SDS011;43102;52.014;-0.680;2023-05-10T00:59:01;5.70;;;3.90;;
57249;SDS011;43102;52.014;-0.680;2023-05-10T01:00:01;5.70;;;3.90;;
57249;SDS011;43102;52.014;-0.680;2023-05-10T01:01:01;5.70;;;3.90;;
57249;SDS011;43102;52.014;-0.680;2023-05-10T01:02:01;5.70;;;3.90;;
57249;SDS011;43102;52.014;-0.680;2023-05-10T01:03:01;5.70;;;3.90;;
57249;SDS011;43102;52.014;-0.680;2023-05-10T01:04:00;5.70;;;3.90;;
57249;SDS011;43102;52.014;-0.680;2023-05-10T01:05:03;5.70;;;3.90;;
57249;SDS011;43102;52.014;-0.680;2023-05-10T01:06:00;5.70;;;3.90;;
57249;SDS011;43102;52.014;-0.680;2023-05-10T01:07:01;5.70;;;3.90;;
57249;SDS011;43102;52.014;-0.680;2023-05-10T01:08:00;5.70;;;3.90;;
57249;SDS011;43102;52.014;-0.680;2023-05-10T01:09:00;5.70;;;3.90;;
57249;SDS011;43102;52.014;-0.680;2023-05-10T01:10:00;5.70;;;3.90;;
57249;SDS011;43102;52.014;-0.680;2023-05-10T01:11:01;5.70;;;3.90;;
57249;SDS011;43102;52.014;-0.680;2023-05-10T01:12:01;5.70;;;3.90;;
57249;SDS011;43102;52.014;-0.680;2023-05-10T01:13:01;5.70;;;3.90;;
57249;SDS011;43102;52.014;-0.680;2023-05-10T01:14:01;5.70;;;3.90;;
57249;SDS011;43102;52.014;-0.680;2023-05-10T01:15:01;5.70;;;3.90;;
57249;SDS011;43102;52.014;-0.680;2023-05-10T01:16:03;5.70;;;3.90;;
57249;SDS011;43102;52.014;-0.680;2023-05-10T01:17:01;5.70;;;3.90;;
57249;SDS011;43102;52.014;-0.680;2023-05-10T01:18:01;5.70;;;3.90;;
57249;SDS011;43102;52.014;-0.680;2023-05-10T01:19:01;5.70;;;3.90;;
57249;SDS011;43102;52.014;-0.680;2023-05-10T01:20:00;5.70;;;3.90;;
57249;SDS011;43102;52.014;-0.680;2023-05-10T01:21:11;5.70;;;3.90;;
57249;SDS011;43102;52.014;-0.680;2023-05-10T01:25:06;5.70;;;3.90;;
57249;SDS011;43102;52.014;-0.680;2023-05-10T01:26:13;5.70;;;3.90;;
57249;SDS011;43102;52.014;-0.680;2023-05-10T01:27:14;5.70;;;3.90;;
57249;SDS011;43102;52.014;-0.680;2023-05-10T01:29:11;5.50;;;3.80;;
57249;SDS011;43102;52.014;-0.680;2023-05-10T01:33:01;5.50;;;3.80;;
57249;SDS011;43102;52.014;-0.680;2023-05-10T01:34:06;5.50;;;3.80;;
57249;SDS011;43102;52.014;-0.680;2023-05-10T01:35:21;5.50;;;3.80;;
57249;SDS011;43102;52.014;-0.680;2023-05-10T01:36:12;5.50;;;3.80;;
57249;SDS011;43102;52.014;-0.680;2023-05-10T01:37:07;5.50;;;3.80;;
57249;SDS011;43102;52.014;-0.680;2023-05-10T01:38:13;5.50;;;3.80;;
57249;SDS011;43102;52.014;-0.680;2023-05-10T01:39:10;5.50;;;3.80;;
57249;SDS011;43102;52.014;-0.680;2023-05-10T01:40:07;5.50;;;3.80;;
57249;SDS011;43102;52.014;-0.680;2023-05-10T01:41:13;5.50;;;3.80;;
57249;SDS011;43102;52.014;-0.680;2023-05-10T01:42:07;5.50;;;3.80;;
57249;SDS011;43102;52.014;-0.680;2023-05-10T01:43:03;5.50;;;3.80;;
57249;SDS011;43102;52.014;-0.680;2023-05-10T01:45:14;5.50;;;3.80;;
57249;SDS011;43102;52.014;-0.680;2023-05-10T01:46:02;5.50;;;3.80;;
57249;SDS011;43102;52.014;-0.680;2023-05-10T01:47:10;5.50;;;3.80;;
57249;SDS011;43102;52.014;-0.680;2023-05-10T01:48:06;5.50;;;3.80;;
57249;SDS011;43102;52.014;-0.680;2023-05-10T01:49:02;5.50;;;3.80;;
57249;SDS011;43102;52.014;-0.680;2023-05-10T01:50:03;5.50;;;3.80;;
57249;SDS011;43102;52.014;-0.680;2023-05-10T01:51:01;5.50;;;3.80;;
57249;SDS011;43102;52.014;-0.680;2023-05-10T01:52:07;5.50;;;3.80;;
57249;SDS011;43102;52.014;-0.680;2023-05-10T01:53:02;5.50;;;3.80;;
57249;SDS011;43102;52.014;-0.680;2023-05-10T01:54:02;5.50;;;3.80;;
57249;SDS011;43102;52.014;-0.680;2023-05-10T01:55:04;5.50;;;3.80;;
57249;SDS011;43102;52.014;-0.680;2023-05-10T01:56:01;5.50;;;3.80;;
57249;SDS011;43102;52.014;-0.680;2023-05-10T01:57:05;5.50;;;3.80;;
57249;SDS011;43102;52.014;-0.680;2023-05-10T01:58:06;5.50;;;3.80;;
57249;SDS011;43102;52.014;-0.680;2023-05-10T01:59:06;8.60;;;4.80;;
57249;SDS011;43102;52.014;-0.680;2023-05-10T02:00:04;8.60;;;4.80;;
57249;SDS011;43102;52.014;-0.680;2023-05-10T02:01:03;8.60;;;4.80;;
57249;SDS011;43102;52.014;-0.680;2023-05-10T02:02:02;8.60;;;4.80;;
57249;SDS011;43102;52.014;-0.680;2023-05-10T02:03:05;8.60;;;4.80;;
57249;SDS011;43102;52.014;-0.680;2023-05-10T02:04:02;8.60;;;4.80;;
57249;SDS011;43102;52.014;-0.680;2023-05-10T02:05:03;8.60;;;4.80;;
57249;SDS011;43102;52.014;-0.680;2023-05-10T02:06:01;8.60;;;4.80;;
57249;SDS011;43102;52.014;-0.680;2023-05-10T02:07:00;8.60;;;4.80;;
57249;SDS011;43102;52.014;-0.680;2023-05-10T02:08:01;8.60;;;4.80;;
57249;SDS011;43102;52.014;-0.680;2023-05-10T02:09:01;8.60;;;4.80;;
57249;SDS011;43102;52.014;-0.680;2023-05-10T02:10:04;8.60;;;4.80;;
57249;SDS011;43102;52.014;-0.680;2023-05-10T02:11:02;8.60;;;4.80;;
57249;SDS011;43102;52.014;-0.680;2023-05-10T02:12:02;8.60;;;4.80;;
57249;SDS011;43102;52.014;-0.680;2023-05-10T02:13:02;8.60;;;4.80;;
57249;SDS011;43102;52.014;-0.680;2023-05-10T02:14:01;8.60;;;4.80;;
57249;SDS011;43102;52.014;-0.680;2023-05-10T02:15:02;8.60;;;4.80;;
57249;SDS011;43102;52.014;-0.680;2023-05-10T02:16:01;8.60;;;4.80;;
57249;SDS011;43102;52.014;-0.680;2023-05-10T02:17:02;8.60;;;4.80;;
57249;SDS011;43102;52.014;-0.680;2023-05-10T02:18:02;8.60;;;4.80;;
57249;SDS011;43102;52.014;-0.680;2023-05-10T02:19:01;8.60;;;4.80;;
57249;SDS011;43102;52.014;-0.680;2023-05-10T02:20:02;8.60;;;4.80;;
57249;SDS011;43102;52.014;-0.680;2023-05-10T02:21:02;8.60;;;4.80;;
57249;SDS011;43102;52.014;-0.680;2023-05-10T02:22:02;8.60;;;4.80;;
57249;SDS011;43102;52.014;-0.680;2023-05-10T02:23:01;8.60;;;4.80;;
57249;SDS011;43102;52.014;-0.680;2023-05-10T02:24:03;8.60;;;4.80;;
57249;SDS011;43102;52.014;-0.680;2023-05-10T02:25:01;8.60;;;4.80;;
57249;SDS011;43102;52.014;-0.680;2023-05-10T02:26:01;8.60;;;4.80;;
57249;SDS011;43102;52.014;-0.680;2023-05-10T02:27:02;8.60;;;4.80;;
57249;SDS011;43102;52.014;-0.680;2023-05-10T02:28:03;8.60;;;4.80;;
57249;SDS011;43102;52.014;-0.680;2023-05-10T02:29:03;6.80;;;4.60;;
57249;SDS011;43102;52.014;-0.680;2023-05-10T02:30:01;6.80;;;4.60;;
57249;SDS011;43102;52.014;-0.680;2023-05-10T02:31:01;6.80;;;4.60;;
57249;SDS011;43102;52.014;-0.680;2023-05-10T02:32:01;6.80;;;4.60;;
57249;SDS011;43102;52.014;-0.680;2023-05-10T02:33:01;6.80;;;4.60;;
57249;SDS011;43102;52.014;-0.680;2023-05-10T02:34:01;6.80;;;4.60;;
57249;SDS011;43102;52.014;-0.680;2023-05-10T02:35:02;6.80;;;4.60;;
57249;SDS011;43102;52.014;-0.680;2023-05-10T02:36:02;6.80;;;4.60;;
57249;SDS011;43102;52.014;-0.680;2023-05-10T02:37:02;6.80;;;4.60;;
57249;SDS011;43102;52.014;-0.680;2023-05-10T02:38:01;6.80;;;4.60;;
57249;SDS011;43102;52.014;-0.680;2023-05-10T02:39:01;6.80;;;4.60;;
57249;SDS011;43102;52.014;-0.680;2023-05-10T02:40:03;6.80;;;4.60;;
57249;SDS011;43102;52.014;-0.680;2023-05-10T02:41:02;6.80;;;4.60;;
57249;SDS011;43102;52.014;-0.680;2023-05-10T02:42:02;6.80;;;4.60;;
57249;SDS011;43102;52.014;-0.680;2023-05-10T02:43:01;6.80;;;4.60;;
57249;SDS011;43102;52.014;-0.680;2023-05-10T02:44:02;6.80;;;4.60;;
57249;SDS011;43102;52.014;-0.680;2023-05-10T02:45:02;6.80;;;4.60;;
57249;SDS011;43102;52.014;-0.680;2023-05-10T02:46:01;6.80;;;4.60;;
57249;SDS011;43102;52.014;-0.680;2023-05-10T02:47:00;6.80;;;4.60;;
57249;SDS011;43102;52.014;-0.680;2023-05-10T02:48:01;6.80;;;4.60;;
57249;SDS011;43102;52.014;-0.680;2023-05-10T02:49:01;6.80;;;4.60;;
57249;SDS011;43102;52.014;-0.680;2023-05-10T02:50:01;6.80;;;4.60;;
57249;SDS011;43102;52.014;-0.680;2023-05-10T02:51:04;6.80;;;4.60;;
57249;SDS011;43102;52.014;-0.680;2023-05-10T02:52:04;6.80;;;4.60;;
57249;SDS011;43102;52.014;-0.680;2023-05-10T02:53:04;6.80;;;4.60;;
57249;SDS011;43102;52.014;-0.680;2023-05-10T02:54:07;6.80;;;4.60;;
57249;SDS011;43102;52.014;-0.680;2023-05-10T02:55:03;6.80;;;4.60;;
57249;SDS011;43102;52.014;-0.680;2023-05-10T02:56:05;6.80;;;4.60;;
57249;SDS011;43102;52.014;-0.680;2023-05-10T02:57:04;6.80;;;4.60;;
57249;SDS011;43102;52.014;-0.680;2023-05-10T02:58:01;6.80;;;4.60;;
57249;SDS011;43102;52.014;-0.680;2023-05-10T02:59:00;5.70;;;4.40;;
57249;SDS011;43102;52.014;-0.680;2023-05-10T03:00:02;5.70;;;4.40;;
57249;SDS011;43102;52.014;-0.680;2023-05-10T03:01:00;5.70;;;4.40;;
57249;SDS011;43102;52.014;-0.680;2023-05-10T03:02:01;5.70;;;4.40;;
57249;SDS011;43102;52.014;-0.680;2023-05-10T03:03:01;5.70;;;4.40;;
57249;SDS011;43102;52.014;-0.680;2023-05-10T03:04:00;5.70;;;4.40;;
57249;SDS011;43102;52.014;-0.680;2023-05-10T03:05:01;5.70;;;4.40;;
57249;SDS011;43102;52.014;-0.680;2023-05-10T03:06:00;5.70;;;4.40;;
57249;SDS011;43102;52.014;-0.680;2023-05-10T03:07:01;5.70;;;4.40;;
57249;SDS011;43102;52.014;-0.680;2023-05-10T03:08:04;5.70;;;4.40;;
57249;SDS011;43102;52.014;-0.680;2023-05-10T03:09:02;5.70;;;4.40;;
57249;SDS011;43102;52.014;-0.680;2023-05-10T03:10:01;5.70;;;4.40;;
57249;SDS011;43102;52.014;-0.680;2023-05-10T03:12:07;5.70;;;4.40;;
57249;SDS011;43102;52.014;-0.680;2023-05-10T03:13:07;5.70;;;4.40;;
57249;SDS011;43102;52.014;-0.680;2023-05-10T03:15:06;5.70;;;4.40;;
57249;SDS011;43102;52.014;-0.680;2023-05-10T03:16:08;5.70;;;4.40;;
57249;SDS011;43102;52.014;-0.680;2023-05-10T03:17:10;5.70;;;4.40;;
57249;SDS011;43102;52.014;-0.680;2023-05-10T03:18:07;5.70;;;4.40;;
57249;SDS011;43102;52.014;-0.680;2023-05-10T03:19:10;5.70;;;4.40;;
57249;SDS011;43102;52.014;-0.680;2023-05-10T03:20:08;5.70;;;4.40;;
57249;SDS011;43102;52.014;-0.680;2023-05-10T03:21:05;5.70;;;4.40;;
57249;SDS011;43102;52.014;-0.680;2023-05-10T03:22:07;5.70;;;4.40;;
57249;SDS011;43102;52.014;-0.680;2023-05-10T03:23:07;5.70;;;4.40;;
57249;SDS011;43102;52.014;-0.680;2023-05-10T03:24:07;5.70;;;4.40;;
57249;SDS011;43102;52.014;-0.680;2023-05-10T03:25:06;5.70;;;4.40;;
57249;SDS011;43102;52.014;-0.680;2023-05-10T03:26:01;5.70;;;4.40;;
57249;SDS011;43102;52.014;-0.680;2023-05-10T03:27:02;5.70;;;4.40;;
57249;SDS011;43102;52.014;-0.680;2023-05-10T03:28:01;5.70;;;4.40;;
57249;SDS011;43102;52.014;-0.680;2023-05-10T03:29:01;6.60;;;4.50;;
57249;SDS011;43102;52.014;-0.680;2023-05-10T03:30:02;6.60;;;4.50;;
57249;SDS011;43102;52.014;-0.680;2023-05-10T03:31:02;6.60;;;4.50;;
57249;SDS011;43102;52.014;-0.680;2023-05-10T03:32:00;6.60;;;4.50;;
57249;SDS011;43102;52.014;-0.680;2023-05-10T03:33:08;6.60;;;4.50;;
57249;SDS011;43102;52.014;-0.680;2023-05-10T03:34:01;6.60;;;4.50;;
57249;SDS011;43102;52.014;-0.680;2023-05-10T03:35:02;6.60;;;4.50;;
57249;SDS011;43102;52.014;-0.680;2023-05-10T03:36:00;6.60;;;4.50;;
57249;SDS011;43102;52.014;-0.680;2023-05-10T03:37:00;6.60;;;4.50;;
57249;SDS011;43102;52.014;-0.680;2023-05-10T03:38:01;6.60;;;4.50;;
57249;SDS011;43102;52.014;-0.680;2023-05-10T03:39:00;6.60;;;4.50;;
57249;SDS011;43102;52.014;-0.680;2023-05-10T03:40:01;6.60;;;4.50;;
57249;SDS011;43102;52.014;-0.680;2023-05-10T03:41:00;6.60;;;4.50;;
57249;SDS011;43102;52.014;-0.680;2023-05-10T03:42:00;6.60;;;4.50;;
57249;SDS011;43102;52.014;-0.680;2023-05-10T03:43:01;6.60;;;4.50;;
57249;SDS011;43102;52.014;-0.680;2023-05-10T03:44:00;6.60;;;4.50;;
57249;SDS011;43102;52.014;-0.680;2023-05-10T03:45:00;6.60;;;4.50;;
57249;SDS011;43102;52.014;-0.680;2023-05-10T03:46:02;6.60;;;4.50;;
57249;SDS011;43102;52.014;-0.680;2023-05-10T03:47:01;6.60;;;4.50;;
57249;SDS011;43102;52.014;-0.680;2023-05-10T03:48:01;6.60;;;4.50;;
57249;SDS011;43102;52.014;-0.680;2023-05-10T03:49:00;6.60;;;4.50;;
57249;SDS011;43102;52.014;-0.680;2023-05-10T03:50:01;6.60;;;4.50;;
57249;SDS011;43102;52.014;-0.680;2023-05-10T03:51:00;6.60;;;4.50;;
57249;SDS011;43102;52.014;-0.680;2023-05-10T03:52:00;6.60;;;4.50;;
57249;SDS011;43102;52.014;-0.680;2023-05-10T03:53:00;6.60;;;4.50;;
57249;SDS011;43102;52.014;-0.680;2023-05-10T03:54:00;6.60;;;4.50;;
57249;SDS011;43102;52.014;-0.680;2023-05-10T03:55:02;6.60;;;4.50;;
57249;SDS011;43102;52.014;-0.680;2023-05-10T03:56:00;6.60;;;4.50;;
57249;SDS011;43102;52.014;-0.680;2023-05-10T03:57:00;6.60;;;4.50;;
57249;SDS011;43102;52.014;-0.680;2023-05-10T03:58:00;6.60;;;4.50;;
57249;SDS011;43102;52.014;-0.680;2023-05-10T03:59:00;6.00;;;4.40;;
57249;SDS011;43102;52.014;-0.680;2023-05-10T04:00:00;6.00;;;4.40;;
57249;SDS011;43102;52.014;-0.680;2023-05-10T04:01:00;6.00;;;4.40;;
57249;SDS011;43102;52.014;-0.680;2023-05-10T04:02:00;6.00;;;4.40;;
57249;SDS011;43102;52.014;-0.680;2023-05-10T04:03:01;6.00;;;4.40;;
57249;SDS011;43102;52.014;-0.680;2023-05-10T04:04:01;6.00;;;4.40;;
57249;SDS011;43102;52.014;-0.680;2023-05-10T04:05:01;6.00;;;4.40;;
57249;SDS011;43102;52.014;-0.680;2023-05-10T04:06:01;6.00;;;4.40;;
57249;SDS011;43102;52.014;-0.680;2023-05-10T04:07:00;6.00;;;4.40;;
57249;SDS011;43102;52.014;-0.680;2023-05-10T04:08:01;6.00;;;4.40;;
57249;SDS011;43102;52.014;-0.680;2023-05-10T04:09:03;6.00;;;4.40;;
57249;SDS011;43102;52.014;-0.680;2023-05-10T04:10:01;6.00;;;4.40;;
57249;SDS011;43102;52.014;-0.680;2023-05-10T04:11:09;6.00;;;4.40;;
57249;SDS011;43102;52.014;-0.680;2023-05-10T04:12:02;6.00;;;4.40;;
57249;SDS011;43102;52.014;-0.680;2023-05-10T04:13:00;6.00;;;4.40;;
57249;SDS011;43102;52.014;-0.680;2023-05-10T04:14:00;6.00;;;4.40;;
57249;SDS011;43102;52.014;-0.680;2023-05-10T04:15:01;6.00;;;4.40;;
57249;SDS011;43102;52.014;-0.680;2023-05-10T04:16:01;6.00;;;4.40;;
57249;SDS011;43102;52.014;-0.680;2023-05-10T04:17:00;6.00;;;4.40;;
57249;SDS011;43102;52.014;-0.680;2023-05-10T04:18:00;6.00;;;4.40;;
57249;SDS011;43102;52.014;-0.680;2023-05-10T04:19:00;6.00;;;4.40;;
57249;SDS011;43102;52.014;-0.680;2023-05-10T04:20:00;6.00;;;4.40;;
57249;SDS011;43102;52.014;-0.680;2023-05-10T04:21:00;6.00;;;4.40;;
57249;SDS011;43102;52.014;-0.680;2023-05-10T04:22:02;6.00;;;4.40;;
57249;SDS011;43102;52.014;-0.680;2023-05-10T04:23:00;6.00;;;4.40;;
57249;SDS011;43102;52.014;-0.680;2023-05-10T04:24:00;6.00;;;4.40;;
57249;SDS011;43102;52.014;-0.680;2023-05-10T04:25:00;6.00;;;4.40;;
57249;SDS011;43102;52.014;-0.680;2023-05-10T04:26:01;6.00;;;4.40;;
57249;SDS011;43102;52.014;-0.680;2023-05-10T04:27:00;6.00;;;4.40;;
57249;SDS011;43102;52.014;-0.680;2023-05-10T04:28:00;6.00;;;4.40;;
57249;SDS011;43102;52.014;-0.680;2023-05-10T04:29:00;6.00;;;4.40;;
57249;SDS011;43102;52.014;-0.680;2023-05-10T04:30:01;8.00;;;5.10;;
57249;SDS011;43102;52.014;-0.680;2023-05-10T04:31:05;8.00;;;5.10;;
57249;SDS011;43102;52.014;-0.680;2023-05-10T04:32:00;8.00;;;5.10;;
57249;SDS011;43102;52.014;-0.680;2023-05-10T04:33:01;8.00;;;5.10;;
57249;SDS011;43102;52.014;-0.680;2023-05-10T04:34:00;8.00;;;5.10;;
57249;SDS011;43102;52.014;-0.680;2023-05-10T04:35:03;8.00;;;5.10;;
57249;SDS011;43102;52.014;-0.680;2023-05-10T04:36:01;8.00;;;5.10;;
57249;SDS011;43102;52.014;-0.680;2023-05-10T04:37:00;8.00;;;5.10;;
57249;SDS011;43102;52.014;-0.680;2023-05-10T04:38:00;8.00;;;5.10;;
57249;SDS011;43102;52.014;-0.680;2023-05-10T04:39:00;8.00;;;5.10;;
57249;SDS011;43102;52.014;-0.680;2023-05-10T04:40:00;8.00;;;5.10;;
57249;SDS011;43102;52.014;-0.680;2023-05-10T04:41:08;8.00;;;5.10;;
57249;SDS011;43102;52.014;-0.680;2023-05-10T04:42:02;8.00;;;5.10;;
57249;SDS011;43102;52.014;-0.680;2023-05-10T04:43:00;8.00;;;5.10;;
57249;SDS011;43102;52.014;-0.680;2023-05-10T04:44:00;8.00;;;5.10;;
57249;SDS011;43102;52.014;-0.680;2023-05-10T04:45:01;8.00;;;5.10;;
57249;SDS011;43102;52.014;-0.680;2023-05-10T04:46:00;8.00;;;5.10;;
57249;SDS011;43102;52.014;-0.680;2023-05-10T04:47:02;8.00;;;5.10;;
57249;SDS011;43102;52.014;-0.680;2023-05-10T04:48:00;8.00;;;5.10;;
57249;SDS011;43102;52.014;-0.680;2023-05-10T04:49:00;8.00;;;5.10;;
57249;SDS011;43102;52.014;-0.680;2023-05-10T04:50:01;8.00;;;5.10;;
57249;SDS011;43102;52.014;-0.680;2023-05-10T04:51:01;8.00;;;5.10;;
57249;SDS011;43102;52.014;-0.680;2023-05-10T04:52:00;8.00;;;5.10;;
57249;SDS011;43102;52.014;-0.680;2023-05-10T04:53:00;8.00;;;5.10;;
57249;SDS011;43102;52.014;-0.680;2023-05-10T04:54:03;8.00;;;5.10;;
57249;SDS011;43102;52.014;-0.680;2023-05-10T04:55:02;8.00;;;5.10;;
57249;SDS011;43102;52.014;-0.680;2023-05-10T04:56:00;8.00;;;5.10;;
57249;SDS011;43102;52.014;-0.680;2023-05-10T04:57:00;8.00;;;5.10;;
57249;SDS011;43102;52.014;-0.680;2023-05-10T04:58:00;8.00;;;5.10;;
57249;SDS011;43102;52.014;-0.680;2023-05-10T04:59:01;8.00;;;5.10;;
57249;SDS011;43102;52.014;-0.680;2023-05-10T05:00:01;10.00;;;6.30;;
57249;SDS011;43102;52.014;-0.680;2023-05-10T05:01:08;10.00;;;6.30;;
57249;SDS011;43102;52.014;-0.680;2023-05-10T05:02:01;10.00;;;6.30;;
57249;SDS011;43102;52.014;-0.680;2023-05-10T05:03:01;10.00;;;6.30;;
57249;SDS011;43102;52.014;-0.680;2023-05-10T05:04:01;10.00;;;6.30;;
57249;SDS011;43102;52.014;-0.680;2023-05-10T05:05:00;10.00;;;6.30;;
57249;SDS011;43102;52.014;-0.680;2023-05-10T05:06:00;10.00;;;6.30;;
57249;SDS011;43102;52.014;-0.680;2023-05-10T05:07:00;10.00;;;6.30;;
57249;SDS011;43102;52.014;-0.680;2023-05-10T05:08:01;10.00;;;6.30;;
57249;SDS011;43102;52.014;-0.680;2023-05-10T05:09:00;10.00;;;6.30;;
57249;SDS011;43102;52.014;-0.680;2023-05-10T05:10:00;10.00;;;6.30;;
57249;SDS011;43102;52.014;-0.680;2023-05-10T05:11:01;10.00;;;6.30;;
57249;SDS011;43102;52.014;-0.680;2023-05-10T05:12:00;10.00;;;6.30;;
57249;SDS011;43102;52.014;-0.680;2023-05-10T05:13:01;10.00;;;6.30;;
57249;SDS011;43102;52.014;-0.680;2023-05-10T05:14:00;10.00;;;6.30;;
57249;SDS011;43102;52.014;-0.680;2023-05-10T05:15:01;10.00;;;6.30;;
57249;SDS011;43102;52.014;-0.680;2023-05-10T05:16:02;10.00;;;6.30;;
57249;SDS011;43102;52.014;-0.680;2023-05-10T05:17:00;10.00;;;6.30;;
57249;SDS011;43102;52.014;-0.680;2023-05-10T05:18:01;10.00;;;6.30;;
57249;SDS011;43102;52.014;-0.680;2023-05-10T05:19:01;10.00;;;6.30;;
57249;SDS011;43102;52.014;-0.680;2023-05-10T05:20:00;10.00;;;6.30;;
57249;SDS011;43102;52.014;-0.680;2023-05-10T05:21:00;10.00;;;6.30;;
57249;SDS011;43102;52.014;-0.680;2023-05-10T05:22:00;10.00;;;6.30;;
57249;SDS011;43102;52.014;-0.680;2023-05-10T05:23:01;10.00;;;6.30;;
57249;SDS011;43102;52.014;-0.680;2023-05-10T05:24:00;10.00;;;6.30;;
57249;SDS011;43102;52.014;-0.680;2023-05-10T05:25:02;10.00;;;6.30;;
57249;SDS011;43102;52.014;-0.680;2023-05-10T05:26:01;10.00;;;6.30;;
57249;SDS011;43102;52.014;-0.680;2023-05-10T05:27:00;10.00;;;6.30;;
57249;SDS011;43102;52.014;-0.680;2023-05-10T05:28:01;10.00;;;6.30;;
57249;SDS011;43102;52.014;-0.680;2023-05-10T05:29:01;10.00;;;6.30;;
57249;SDS011;43102;52.014;-0.680;2023-05-10T05:30:01;12.20;;;7.70;;
57249;SDS011;43102;52.014;-0.680;2023-05-10T05:31:00;12.20;;;7.70;;
57249;SDS011;43102;52.014;-0.680;2023-05-10T05:32:01;12.20;;;7.70;;
57249;SDS011;43102;52.014;-0.680;2023-05-10T05:33:01;12.20;;;7.70;;
57249;SDS011;43102;52.014;-0.680;2023-05-10T05:34:01;12.20;;;7.70;;
57249;SDS011;43102;52.014;-0.680;2023-05-10T05:35:00;12.20;;;7.70;;
57249;SDS011;43102;52.014;-0.680;2023-05-10T05:36:02;12.20;;;7.70;;
57249;SDS011;43102;52.014;-0.680;2023-05-10T05:37:02;12.20;;;7.70;;
57249;SDS011;43102;52.014;-0.680;2023-05-10T05:38:01;12.20;;;7.70;;
57249;SDS011;43102;52.014;-0.680;2023-05-10T05:39:01;12.20;;;7.70;;
57249;SDS011;43102;52.014;-0.680;2023-05-10T05:40:02;12.20;;;7.70;;
57249;SDS011;43102;52.014;-0.680;2023-05-10T05:41:01;12.20;;;7.70;;
57249;SDS011;43102;52.014;-0.680;2023-05-10T05:42:00;12.20;;;7.70;;
57249;SDS011;43102;52.014;-0.680;2023-05-10T05:43:00;12.20;;;7.70;;
57249;SDS011;43102;52.014;-0.680;2023-05-10T05:44:00;12.20;;;7.70;;
57249;SDS011;43102;52.014;-0.680;2023-05-10T05:45:00;12.20;;;7.70;;
57249;SDS011;43102;52.014;-0.680;2023-05-10T05:46:01;12.20;;;7.70;;
57249;SDS011;43102;52.014;-0.680;2023-05-10T05:47:01;12.20;;;7.70;;
57249;SDS011;43102;52.014;-0.680;2023-05-10T05:48:01;12.20;;;7.70;;
57249;SDS011;43102;52.014;-0.680;2023-05-10T05:49:01;12.20;;;7.70;;
57249;SDS011;43102;52.014;-0.680;2023-05-10T05:50:00;12.20;;;7.70;;
57249;SDS011;43102;52.014;-0.680;2023-05-10T05:51:01;12.20;;;7.70;;
57249;SDS011;43102;52.014;-0.680;2023-05-10T05:52:01;12.20;;;7.70;;
57249;SDS011;43102;52.014;-0.680;2023-05-10T05:53:00;12.20;;;7.70;;
57249;SDS011;43102;52.014;-0.680;2023-05-10T05:54:01;12.20;;;7.70;;
57249;SDS011;43102;52.014;-0.680;2023-05-10T05:55:00;12.20;;;7.70;;
57249;SDS011;43102;52.014;-0.680;2023-05-10T05:56:01;12.20;;;7.70;;
57249;SDS011;43102;52.014;-0.680;2023-05-10T05:57:01;12.20;;;7.70;;
57249;SDS011;43102;52.014;-0.680;2023-05-10T05:58:01;12.20;;;7.70;;
57249;SDS011;43102;52.014;-0.680;2023-05-10T05:59:01;12.20;;;7.70;;
57249;SDS011;43102;52.014;-0.680;2023-05-10T06:00:01;10.20;;;8.00;;
57249;SDS011;43102;52.014;-0.680;2023-05-10T06:01:01;10.20;;;8.00;;
57249;SDS011;43102;52.014;-0.680;2023-05-10T06:02:01;10.20;;;8.00;;
57249;SDS011;43102;52.014;-0.680;2023-05-10T06:03:01;10.20;;;8.00;;
57249;SDS011;43102;52.014;-0.680;2023-05-10T06:04:01;10.20;;;8.00;;